createdAt,value
2024-01-19T00:00:32.448Z,66603.88
2024-01-19T00:02:59.574Z,66597.94
2024-01-19T00:05:26.767Z,66615.97
2024-01-19T00:07:53.941Z,66601.63
2024-01-19T00:10:21.030Z,66608.69
2024-01-19T00:12:48.356Z,66598.84
2024-01-19T00:15:15.442Z,66599.06
2024-01-19T00:17:42.584Z,66592.13
2024-01-19T00:20:11.123Z,66602.97
2024-01-19T00:22:38.240Z,66600.50
2024-01-19T00:25:05.784Z,66599.19
2024-01-19T00:27:33.113Z,66595.16
2024-01-19T00:30:00.344Z,66603.53
2024-01-19T00:32:27.485Z,66590.53
2024-01-19T00:34:54.783Z,66593.81
2024-01-19T00:37:21.884Z,66587.66
2024-01-19T00:39:49.044Z,66580.16
2024-01-19T00:42:16.117Z,66591.78
2024-01-19T00:44:43.260Z,66599.97
2024-01-19T00:47:10.356Z,66605.22
2024-01-19T00:49:37.587Z,66606.44
2024-01-19T00:52:05.087Z,66619.53
2024-01-19T00:54:32.183Z,66613.94
2024-01-19T00:56:59.363Z,66607.56
2024-01-19T00:59:26.941Z,66613.38
2024-01-19T01:01:53.999Z,66607.78
2024-01-19T01:04:21.102Z,66613.38
2024-01-19T01:06:48.333Z,66627.16
2024-01-19T01:09:15.867Z,66622.88
2024-01-19T01:11:43.014Z,66620.66
2024-01-19T01:14:10.374Z,66615.25
2024-01-19T01:16:37.466Z,66620.09
2024-01-19T01:19:04.621Z,66621.63
2024-01-19T01:21:31.705Z,66622.53
2024-01-19T01:23:58.889Z,66622.34
2024-01-19T01:26:26.075Z,66616.19
2024-01-19T01:28:53.229Z,66607.22
2024-01-19T01:31:20.299Z,66609.25
2024-01-19T01:33:47.528Z,66595.84
2024-01-19T01:36:14.808Z,66610.03
2024-01-19T01:38:41.952Z,66609.69
2024-01-19T01:41:09.084Z,66606.69
2024-01-19T01:43:36.638Z,66613.38
2024-01-19T01:46:04.152Z,66585.63
2024-01-19T01:48:31.467Z,66580.41
2024-01-19T01:50:58.815Z,66594.38
2024-01-19T01:53:26.647Z,66599.06
2024-01-19T01:55:55.126Z,66596.59
2024-01-19T01:58:22.191Z,66610.44
2024-01-19T02:00:49.442Z,66625.13
2024-01-19T02:03:16.680Z,66634.06
2024-01-19T02:05:44.138Z,66628.81
2024-01-19T02:08:11.418Z,66626.09
2024-01-19T02:10:38.613Z,66621.22
2024-01-19T02:13:05.782Z,66623.13
2024-01-19T02:15:35.427Z,66629.38
2024-01-19T02:18:02.720Z,66619.53
2024-01-19T02:20:29.931Z,66620.53
2024-01-19T02:22:57.765Z,66610.25
2024-01-19T02:25:24.917Z,66614.16
2024-01-19T02:27:52.244Z,66602.06
2024-01-19T02:30:19.572Z,66596.81
2024-01-19T02:32:46.687Z,66608.34
2024-01-19T02:35:13.991Z,66593.47
2024-01-19T02:37:41.086Z,66586.53
2024-01-19T02:40:08.961Z,66587.31
2024-01-19T02:42:36.061Z,66590.78
2024-01-19T02:45:03.261Z,66589.91
2024-01-19T02:47:31.775Z,66585.19
2024-01-19T02:50:00.256Z,66567.53
2024-01-19T02:52:27.413Z,66583.97
2024-01-19T02:54:54.649Z,66582.63
2024-01-19T02:57:21.718Z,66578.16
2024-01-19T02:59:48.905Z,66579.50
2024-01-19T03:02:16.345Z,66582.28
2024-01-19T03:04:43.460Z,66534.91
2024-01-19T03:07:10.559Z,66572.22
2024-01-19T03:09:37.629Z,66568.88
2024-01-19T03:12:07.060Z,66572.56
2024-01-19T03:14:35.756Z,66566.97
2024-01-19T03:17:03.811Z,66567.75
2024-01-19T03:19:33.093Z,66567.75
2024-01-19T03:22:00.231Z,66567.31
2024-01-19T03:24:27.364Z,66554.47
2024-01-19T03:26:54.577Z,66565.84
2024-01-19T03:29:24.078Z,66561.16
2024-01-19T03:31:51.265Z,66564.75
2024-01-19T03:34:19.014Z,66564.06
2024-01-19T03:36:46.083Z,66582.63
2024-01-19T03:39:13.820Z,66579.84
2024-01-19T03:41:40.971Z,66590.78
2024-01-19T03:44:08.053Z,66587.66
2024-01-19T03:46:35.123Z,66544.06
2024-01-19T03:49:07.049Z,66582.84
2024-01-19T03:51:34.149Z,66584.06
2024-01-19T03:54:01.251Z,66580.41
2024-01-19T03:56:28.356Z,66583.41
2024-01-19T03:58:55.660Z,66583.19
2024-01-19T04:01:22.748Z,66571.09
2024-01-19T04:03:50.012Z,66577.59
2024-01-19T04:06:17.451Z,66579.25
2024-01-19T04:08:44.600Z,66574.03
2024-01-19T04:11:11.735Z,66568.09
2024-01-19T04:13:39.091Z,66567.53
2024-01-19T04:16:06.785Z,66553.56
2024-01-19T04:18:33.910Z,66555.44
2024-01-19T04:21:01.000Z,66569.22
2024-01-19T04:23:28.093Z,66580.16
2024-01-19T04:25:55.150Z,66573.13
2024-01-19T04:28:22.191Z,66567.75
2024-01-19T04:30:49.282Z,66572.34
2024-01-19T04:33:16.434Z,66564.25
2024-01-19T04:35:43.651Z,66568.88
2024-01-19T04:38:10.785Z,66562.84
2024-01-19T04:40:37.850Z,66567.31
2024-01-19T04:43:04.940Z,66550.00
2024-01-19T04:45:32.376Z,66567.19
2024-01-19T04:47:59.638Z,66564.94
2024-01-19T04:50:26.716Z,66561.59
2024-01-19T04:52:53.824Z,66554.34
2024-01-19T04:55:20.864Z,66566.19
2024-01-19T04:57:48.002Z,66565.28
2024-01-19T05:00:16.128Z,66562.50
2024-01-19T05:02:44.454Z,66558.03
2024-01-19T05:05:11.586Z,66555.56
2024-01-19T05:07:38.704Z,66548.53
2024-01-19T05:10:07.132Z,66551.19
2024-01-19T05:12:34.876Z,66570.88
2024-01-19T05:15:02.346Z,66573.91
2024-01-19T05:17:29.648Z,66578.72
2024-01-19T05:19:56.938Z,66568.88
2024-01-19T05:22:24.033Z,66566.75
2024-01-19T05:24:51.150Z,66557.47
2024-01-19T05:27:18.352Z,66544.84
2024-01-19T05:29:45.473Z,66551.88
2024-01-19T05:32:12.635Z,66549.50
2024-01-19T05:34:39.773Z,66557.47
2024-01-19T05:37:06.940Z,66556.34
2024-01-19T05:39:34.054Z,66560.06
2024-01-19T05:42:01.154Z,66525.41
2024-01-19T05:44:28.239Z,66567.88
2024-01-19T05:46:55.334Z,66574.03
2024-01-19T05:49:22.407Z,66563.81
2024-01-19T05:51:49.526Z,66568.66
2024-01-19T05:54:16.652Z,66515.56
2024-01-19T05:56:43.748Z,66561.38
2024-01-19T05:59:10.883Z,66578.16
2024-01-19T06:01:38.054Z,66578.16
2024-01-19T06:04:05.259Z,66583.63
2024-01-19T06:06:32.397Z,66587.09
2024-01-19T06:08:59.604Z,66573.69
2024-01-19T06:11:26.861Z,66596.03
2024-01-19T06:13:53.988Z,66587.88
2024-01-19T06:16:21.415Z,66577.59
2024-01-19T06:18:49.224Z,66570.00
2024-01-19T06:21:16.588Z,66585.97
2024-01-19T06:23:43.691Z,66591.78
2024-01-19T06:26:12.019Z,66547.97
2024-01-19T06:28:39.867Z,66588.56
2024-01-19T06:31:08.805Z,66594.72
2024-01-19T06:33:38.636Z,66591.44
2024-01-19T06:36:10.658Z,66589.22
2024-01-19T06:38:37.786Z,66587.44
2024-01-19T06:41:06.367Z,66575.78
2024-01-19T06:43:33.458Z,66569.22
2024-01-19T06:46:00.688Z,66557.13
2024-01-19T06:48:27.886Z,66574.81
2024-01-19T06:50:55.513Z,66581.84
2024-01-19T06:53:22.633Z,66587.44
2024-01-19T06:55:50.201Z,66583.41
2024-01-19T06:58:17.286Z,66577.03
2024-01-19T07:00:44.430Z,66580.03
2024-01-19T07:03:11.748Z,66587.31
2024-01-19T07:05:39.797Z,66549.66
2024-01-19T07:08:07.117Z,66595.16
2024-01-19T07:10:34.559Z,66599.41
2024-01-19T07:13:01.727Z,66604.44
2024-01-19T07:15:29.522Z,66599.06
2024-01-19T07:17:56.863Z,66598.28
2024-01-19T07:20:24.364Z,66604.22
2024-01-19T07:22:58.020Z,66597.16
2024-01-19T07:25:25.750Z,66605.75
2024-01-19T07:27:52.930Z,66615.41
2024-01-19T07:30:20.181Z,66609.69
2024-01-19T07:32:56.843Z,66607.78
2024-01-19T07:35:32.313Z,66603.31
2024-01-19T07:37:59.708Z,66605.00
2024-01-19T07:40:27.815Z,66613.94
2024-01-19T07:42:54.983Z,66610.38
2024-01-19T07:45:22.037Z,66607.66
2024-01-19T07:47:49.220Z,66619.88
2024-01-19T07:50:17.264Z,66612.81
2024-01-19T07:52:44.489Z,66622.00
2024-01-19T07:55:11.592Z,66631.25
2024-01-19T07:57:38.679Z,66634.63
2024-01-19T08:00:07.347Z,66638.53
2024-01-19T08:02:34.485Z,66644.13
2024-01-19T08:05:01.670Z,66649.97
2024-01-19T08:07:29.096Z,66663.16
2024-01-19T08:09:56.213Z,66666.28
2024-01-19T08:12:23.331Z,66672.31
2024-01-19T08:14:51.575Z,66695.41
2024-01-19T08:17:19.138Z,66750.47
2024-01-19T08:19:46.913Z,66813.56
2024-01-19T08:22:13.959Z,66834.50
2024-01-19T08:24:40.974Z,66840.28
2024-01-19T08:27:08.498Z,66816.00
2024-01-19T08:29:35.732Z,66802.78
2024-01-19T08:32:02.899Z,66786.88
2024-01-19T08:34:30.425Z,66778.69
2024-01-19T08:36:57.711Z,66768.47
2024-01-19T08:39:24.747Z,66775.47
2024-01-19T08:41:51.852Z,66763.00
2024-01-19T08:44:19.295Z,66756.84
2024-01-19T08:46:47.223Z,66771.75
2024-01-19T08:49:14.601Z,66784.06
2024-01-19T08:51:43.727Z,66793.81
2024-01-19T08:54:11.288Z,66799.19
2024-01-19T08:56:43.043Z,66788.22
2024-01-19T08:59:17.097Z,66751.31
2024-01-19T09:01:44.231Z,66788.56
2024-01-19T09:04:11.440Z,66779.38
2024-01-19T09:06:40.208Z,66793.25
2024-01-19T09:09:09.764Z,66795.84
2024-01-19T09:11:36.918Z,66793.25
2024-01-19T09:14:04.116Z,66802.56
2024-01-19T09:16:31.197Z,66808.72
2024-01-19T09:18:59.313Z,66824.41
2024-01-19T09:21:26.760Z,66821.25
2024-01-19T09:23:54.615Z,66827.41
2024-01-19T09:26:22.697Z,66831.47
2024-01-19T09:28:50.444Z,66844.91
2024-01-19T09:31:17.494Z,66837.50
2024-01-19T09:33:46.298Z,66836.16
2024-01-19T09:36:14.149Z,66841.78
2024-01-19T09:38:41.930Z,66860.06
2024-01-19T09:41:40.789Z,66877.06
2024-01-19T09:44:09.843Z,66887.94
2024-01-19T09:46:52.538Z,66910.91
2024-01-19T09:49:31.882Z,66940.66
2024-01-19T09:52:25.681Z,66931.25
2024-01-19T09:54:52.984Z,66921.00
2024-01-19T09:57:20.564Z,66887.50
2024-01-19T09:59:47.759Z,66878.63
2024-01-19T10:02:18.842Z,66906.22
2024-01-19T10:04:46.241Z,66915.19
2024-01-19T10:07:14.399Z,66922.84
2024-01-19T10:09:42.305Z,66913.94
2024-01-19T10:12:11.072Z,66926.75
2024-01-19T10:14:38.219Z,66916.88
2024-01-19T10:17:05.677Z,66917.78
2024-01-19T10:19:34.970Z,66911.63
2024-01-19T10:22:28.298Z,66893.53
2024-01-19T10:25:15.872Z,66917.44
2024-01-19T10:27:45.881Z,66893.53
2024-01-19T10:30:13.474Z,66943.00
2024-01-19T10:32:43.262Z,66956.69
2024-01-19T10:35:18.703Z,66952.53
2024-01-19T10:37:47.426Z,66924.59
2024-01-19T10:40:24.593Z,66942.66
2024-01-19T10:42:57.935Z,66977.09
2024-01-19T10:45:29.815Z,66960.47
2024-01-19T10:47:59.805Z,66944.00
2024-01-19T10:50:29.288Z,66933.13
2024-01-19T10:52:58.334Z,66934.81
2024-01-19T10:55:29.142Z,66914.84
2024-01-19T10:58:07.068Z,66931.13
2024-01-19T11:00:37.218Z,66916.53
2024-01-19T11:03:05.211Z,66906.44
2024-01-19T11:05:33.711Z,66913.94
2024-01-19T11:08:03.349Z,66917.09
2024-01-19T11:10:32.453Z,66930.53
2024-01-19T11:13:01.355Z,66932.78
2024-01-19T11:15:41.973Z,66933.34
2024-01-19T11:18:09.347Z,66927.53
2024-01-19T11:20:36.613Z,66925.28
2024-01-19T11:23:05.052Z,66923.81
2024-01-19T11:25:43.183Z,66929.97
2024-01-19T11:28:17.693Z,66933.84
2024-01-19T11:31:02.069Z,66927.53
2024-01-19T11:33:33.152Z,66935.38
2024-01-19T11:36:00.712Z,66918.91
2024-01-19T11:38:39.853Z,66918.34
2024-01-19T11:41:06.918Z,66909.03
2024-01-19T11:43:41.801Z,66905.88
2024-01-19T11:46:10.896Z,66915.97
2024-01-19T11:48:46.072Z,66903.63
2024-01-19T11:51:33.872Z,66910.72
2024-01-19T11:54:03.559Z,66909.03
2024-01-19T11:56:31.386Z,66925.06
2024-01-19T11:58:59.817Z,66936.50
2024-01-19T12:01:26.878Z,66944.00
2024-01-19T12:03:56.087Z,66940.22
2024-01-19T12:06:23.966Z,66939.88
2024-01-19T12:09:02.423Z,66915.97
2024-01-19T12:11:29.674Z,66923.41
2024-01-19T12:14:05.731Z,66918.22
2024-01-19T12:16:34.192Z,66919.66
2024-01-19T12:19:01.629Z,66905.09
2024-01-19T12:21:29.114Z,66894.31
2024-01-19T12:23:58.449Z,66893.53
2024-01-19T12:26:26.342Z,66911.06
2024-01-19T12:28:54.235Z,66897.25
2024-01-19T12:31:23.601Z,66886.47
2024-01-19T12:33:50.991Z,66891.31
2024-01-19T12:36:23.763Z,66893.00
2024-01-19T12:39:06.961Z,66896.69
2024-01-19T12:41:34.844Z,66899.69
2024-01-19T12:44:02.118Z,66897.25
2024-01-19T12:46:29.357Z,66898.72
2024-01-19T12:49:06.076Z,66899.50
2024-01-19T12:51:33.582Z,66911.28
2024-01-19T12:54:01.501Z,66896.91
2024-01-19T12:56:30.318Z,66898.38
2024-01-19T12:59:11.695Z,66903.78
2024-01-19T13:01:46.777Z,66903.63
2024-01-19T13:04:16.781Z,66898.03
2024-01-19T13:06:45.335Z,66913.50
2024-01-19T13:09:17.574Z,66905.09
2024-01-19T13:11:44.694Z,66903.63
2024-01-19T13:14:13.433Z,66909.03
2024-01-19T13:16:57.719Z,66898.94
2024-01-19T13:19:25.295Z,66911.28
2024-01-19T13:21:54.703Z,66927.31
2024-01-19T13:24:25.383Z,66935.38
2024-01-19T13:27:03.012Z,66938.75
2024-01-19T13:29:30.935Z,66927.75
2024-01-19T13:32:01.168Z,66922.50
2024-01-19T13:34:29.671Z,66919.91
2024-01-19T13:36:58.518Z,66914.63
2024-01-19T13:39:26.020Z,66918.22
2024-01-19T13:41:53.369Z,66915.06
2024-01-19T13:44:20.480Z,66911.47
2024-01-19T13:46:47.633Z,66916.75
2024-01-19T13:49:14.810Z,66914.50
2024-01-19T13:51:42.568Z,66913.50
2024-01-19T13:54:09.560Z,66904.97
2024-01-19T13:56:36.518Z,66905.31
2024-01-19T13:59:03.770Z,66901.19
2024-01-19T14:01:30.976Z,66893.66
2024-01-19T14:03:58.130Z,66898.81
2024-01-19T14:06:25.377Z,66903.06
2024-01-19T14:08:53.709Z,66905.66
2024-01-19T14:11:21.908Z,66896.34
2024-01-19T14:13:49.867Z,66907.13
2024-01-19T14:16:17.146Z,66905.88
2024-01-19T14:18:44.369Z,66915.19
2024-01-19T14:21:11.726Z,66914.06
2024-01-19T14:23:38.949Z,66907.78
2024-01-19T14:26:06.093Z,66910.91
2024-01-19T14:28:33.819Z,66893.91
2024-01-19T14:31:01.121Z,66893.00
2024-01-19T14:33:28.314Z,66896.69
2024-01-19T14:35:55.512Z,66899.16
2024-01-19T14:38:22.700Z,66894.66
2024-01-19T14:40:49.866Z,66887.94
2024-01-19T14:43:16.966Z,66890.19
2024-01-19T14:45:45.367Z,66876.16
2024-01-19T14:48:13.023Z,66858.78
2024-01-19T14:50:42.113Z,66856.13
2024-01-19T14:53:09.637Z,66805.84
2024-01-19T14:55:37.118Z,66838.41
2024-01-19T14:58:04.353Z,66849.97
2024-01-19T15:00:33.720Z,66837.84
2024-01-19T15:03:00.828Z,66827.97
2024-01-19T15:05:27.892Z,66831.91
2024-01-19T15:07:55.276Z,66834.84
2024-01-19T15:10:22.401Z,66835.41
2024-01-19T15:12:49.521Z,66824.97
2024-01-19T15:15:16.702Z,66828.66
2024-01-19T15:17:43.841Z,66817.91
2024-01-19T15:20:11.616Z,66823.84
2024-01-19T15:22:38.778Z,66825.31
2024-01-19T15:25:10.022Z,66819.91
2024-01-19T15:27:38.920Z,66818.81
2024-01-19T15:30:07.322Z,66817.69
2024-01-19T15:32:36.401Z,66816.56
2024-01-19T15:35:06.967Z,66807.25
2024-01-19T15:37:34.980Z,66806.47
2024-01-19T15:40:02.237Z,66798.06
2024-01-19T15:42:30.852Z,66798.97
2024-01-19T15:44:58.105Z,66795.06
2024-01-19T15:47:25.904Z,66788.22
2024-01-19T15:49:53.075Z,66795.63
2024-01-19T15:52:21.354Z,66796.94
2024-01-19T15:54:50.390Z,66792.13
2024-01-19T15:57:17.500Z,66784.84
2024-01-19T15:59:45.963Z,66790.44
2024-01-19T16:02:13.201Z,66789.09
2024-01-19T16:04:40.434Z,66778.13
2024-01-19T16:07:07.520Z,66789.34
2024-01-19T16:09:34.588Z,66789.34
2024-01-19T16:12:01.678Z,66796.03
2024-01-19T16:14:28.748Z,66798.44
2024-01-19T16:16:55.883Z,66798.28
2024-01-19T16:19:22.958Z,66801.44
2024-01-19T16:21:56.498Z,66800.31
2024-01-19T16:24:24.664Z,66806.81
2024-01-19T16:26:51.745Z,66803.88
2024-01-19T16:29:21.558Z,66761.97
2024-01-19T16:31:48.782Z,66805.91
2024-01-19T16:34:15.901Z,66809.06
2024-01-19T16:36:43.170Z,66799.19
2024-01-19T16:39:10.343Z,66801.44
2024-01-19T16:41:44.976Z,66795.25
2024-01-19T16:44:12.672Z,66802.19
2024-01-19T16:46:40.182Z,66805.00
2024-01-19T16:49:07.643Z,66794.38
2024-01-19T16:51:35.415Z,66802.91
2024-01-19T16:54:02.479Z,66794.91
2024-01-19T16:56:32.604Z,66798.44
2024-01-19T16:59:01.280Z,66791.69
2024-01-19T17:01:28.903Z,66782.94
2024-01-19T17:03:56.169Z,66783.50
2024-01-19T17:06:24.817Z,66793.03
2024-01-19T17:08:51.986Z,66792.25
2024-01-19T17:11:19.190Z,66791.56
2024-01-19T17:13:46.325Z,66785.53
2024-01-19T17:16:16.923Z,66789.34
2024-01-19T17:18:48.337Z,66788.22
2024-01-19T17:21:15.627Z,66789.47
2024-01-19T17:23:43.058Z,66790.78
2024-01-19T17:26:10.166Z,66792.81
2024-01-19T17:28:37.871Z,66775.53
2024-01-19T17:31:05.373Z,66789.66
2024-01-19T17:33:33.527Z,66743.13
2024-01-19T17:36:00.804Z,66796.41
2024-01-19T17:38:28.777Z,66788.75
2024-01-19T17:40:56.227Z,66788.00
2024-01-19T17:43:24.850Z,66796.16
2024-01-19T17:45:51.964Z,66796.75
2024-01-19T17:48:23.140Z,66804.03
2024-01-19T17:50:50.991Z,66804.78
2024-01-19T17:53:18.007Z,66808.50
2024-01-19T17:55:45.116Z,66805.38
2024-01-19T17:58:12.245Z,66759.38
2024-01-19T18:00:39.322Z,66799.19
2024-01-19T18:03:08.925Z,66802.00
2024-01-19T18:05:36.165Z,66804.22
2024-01-19T18:08:03.590Z,66806.81
2024-01-19T18:10:30.899Z,66805.69
2024-01-19T18:12:58.109Z,66808.94
2024-01-19T18:15:25.638Z,66810.97
2024-01-19T18:17:52.830Z,66812.06
2024-01-19T18:20:20.457Z,66814.31
2024-01-19T18:22:47.681Z,66821.94
2024-01-19T18:25:14.904Z,66823.06
2024-01-19T18:27:41.978Z,66815.66
2024-01-19T18:30:09.679Z,66823.06
2024-01-19T18:32:37.012Z,66819.56
2024-01-19T18:35:04.510Z,66814.75
2024-01-19T18:37:32.511Z,66824.19
2024-01-19T18:40:02.890Z,66820.13
2024-01-19T18:42:30.172Z,66817.13
2024-01-19T18:44:57.285Z,66812.44
2024-01-19T18:47:25.661Z,66799.75
2024-01-19T18:49:53.674Z,66794.50
2024-01-19T18:52:23.038Z,66794.16
2024-01-19T18:54:50.538Z,66783.16
2024-01-19T18:57:17.689Z,66775.66
2024-01-19T18:59:44.874Z,66783.50
2024-01-19T19:02:13.621Z,66784.06
2024-01-19T19:04:41.328Z,66781.47
2024-01-19T19:07:08.701Z,66785.75
2024-01-19T19:09:36.297Z,66781.47
2024-01-19T19:12:03.654Z,66784.84
2024-01-19T19:14:31.274Z,66778.69
2024-01-19T19:16:58.523Z,66770.28
2024-01-19T19:19:29.381Z,66773.22
2024-01-19T19:21:58.444Z,66766.16
2024-01-19T19:24:26.214Z,66763.13
2024-01-19T19:26:53.350Z,66768.03
2024-01-19T19:29:20.885Z,66754.41
2024-01-19T19:31:48.179Z,66746.56
2024-01-19T19:34:16.749Z,66749.56
2024-01-19T19:36:45.067Z,66755.72
2024-01-19T19:39:12.217Z,66753.63
2024-01-19T19:41:46.334Z,66749.91
2024-01-19T19:44:14.012Z,66758.53
2024-01-19T19:46:41.105Z,66749.91
2024-01-19T19:49:08.404Z,66752.16
2024-01-19T19:51:37.514Z,66760.34
2024-01-19T19:54:05.010Z,66756.84
2024-01-19T19:56:32.317Z,66746.75
2024-01-19T19:58:59.669Z,66754.94
2024-01-19T20:01:27.440Z,66759.22
2024-01-19T20:03:55.301Z,66747.34
2024-01-19T20:06:24.373Z,66749.13
2024-01-19T20:08:52.285Z,66744.53
2024-01-19T20:11:20.333Z,66754.16
2024-01-19T20:13:48.195Z,66737.25
2024-01-19T20:16:15.350Z,66737.38
2024-01-19T20:18:42.717Z,66734.03
2024-01-19T20:21:11.454Z,66683.81
2024-01-19T20:23:38.528Z,66723.59
2024-01-19T20:26:11.517Z,66717.09
2024-01-19T20:28:39.520Z,66717.44
2024-01-19T20:31:06.897Z,66715.53
2024-01-19T20:33:34.430Z,66710.16
2024-01-19T20:36:03.699Z,66710.94
2024-01-19T20:38:31.253Z,66715.53
2024-01-19T20:40:58.600Z,66718.00
2024-01-19T20:43:25.677Z,66667.06
2024-01-19T20:45:52.765Z,66716.88
2024-01-19T20:48:20.457Z,66722.47
2024-01-19T20:50:47.656Z,66727.53
2024-01-19T20:53:15.007Z,66735.16
2024-01-19T20:55:42.426Z,66722.72
2024-01-19T20:58:10.917Z,66722.47
2024-01-19T21:00:38.485Z,66726.75
2024-01-19T21:03:05.793Z,66730.31
2024-01-19T21:05:33.330Z,66675.78
2024-01-19T21:08:00.881Z,66723.06
2024-01-19T21:10:29.670Z,66726.03
2024-01-19T21:12:57.559Z,66737.59
2024-01-19T21:15:27.249Z,66745.09
2024-01-19T21:17:55.443Z,66736.69
2024-01-19T21:20:24.268Z,66734.81
2024-01-19T21:22:51.839Z,66732.00
2024-01-19T21:25:21.415Z,66736.47
2024-01-19T21:27:48.616Z,66734.47
2024-01-19T21:30:15.861Z,66735.00
2024-01-19T21:32:43.004Z,66731.66
2024-01-19T21:35:10.455Z,66749.56
2024-01-19T21:37:37.648Z,66740.06
2024-01-19T21:40:05.618Z,66742.41
2024-01-19T21:42:33.095Z,66728.31
2024-01-19T21:45:00.876Z,66743.75
2024-01-19T21:47:28.337Z,66706.56
2024-01-19T21:49:55.560Z,66750.69
2024-01-19T21:52:23.311Z,66743.75
2024-01-19T21:54:50.711Z,66729.97
2024-01-19T21:57:18.642Z,66734.81
2024-01-19T21:59:46.422Z,66734.47
2024-01-19T22:02:13.685Z,66735.56
2024-01-19T22:04:41.696Z,66738.38
2024-01-19T22:07:09.211Z,66732.44
2024-01-19T22:09:38.075Z,66740.59
2024-01-19T22:12:08.095Z,66735.16
2024-01-19T22:14:35.637Z,66726.03
2024-01-19T22:17:02.832Z,66725.84
2024-01-19T22:19:30.008Z,66724.38
2024-01-19T22:21:57.534Z,66737.81
2024-01-19T22:24:24.609Z,66738.50
2024-01-19T22:26:51.715Z,66737.59
2024-01-19T22:29:19.122Z,66728.44
2024-01-19T22:31:46.943Z,66718.00
2024-01-19T22:34:16.225Z,66714.88
2024-01-19T22:36:46.063Z,66711.50
2024-01-19T22:39:13.823Z,66711.84
2024-01-19T22:41:42.937Z,66715.41
2024-01-19T22:44:10.426Z,66724.50
2024-01-19T22:46:37.609Z,66718.91
2024-01-19T22:49:04.806Z,66718.00
2024-01-19T22:51:32.585Z,66720.59
2024-01-19T22:54:00.189Z,66729.75
2024-01-19T22:56:27.399Z,66728.06
2024-01-19T22:58:55.890Z,66721.69
2024-01-19T23:01:23.048Z,66721.13
2024-01-19T23:03:50.358Z,66715.78
2024-01-19T23:06:17.685Z,66707.59
2024-01-19T23:08:45.026Z,66710.16
2024-01-19T23:11:12.197Z,66700.31
2024-01-19T23:13:39.572Z,66709.81
2024-01-19T23:16:08.448Z,66706.47
2024-01-19T23:18:35.735Z,66720.59
2024-01-19T23:21:03.366Z,66712.41
2024-01-19T23:23:32.182Z,66718.34
2024-01-19T23:26:00.541Z,66726.75
2024-01-19T23:28:27.944Z,66732.34
2024-01-19T23:30:55.339Z,66721.56
2024-01-19T23:33:23.059Z,66719.13
2024-01-19T23:35:50.557Z,66716.66
2024-01-19T23:38:19.161Z,66720.78
2024-01-19T23:40:46.407Z,66683.06
2024-01-19T23:43:13.773Z,66723.25
2024-01-19T23:45:40.947Z,66720.78
2024-01-19T23:48:08.176Z,66726.19
2024-01-19T23:50:35.635Z,66738.72
2024-01-19T23:53:03.088Z,66722.47
2024-01-19T23:55:30.247Z,66719.69
2024-01-19T23:57:57.792Z,66717.78
